sensor_id;sensor_type;location;lat;lon;timestamp;P1;durP1;ratioP1;P2;durP2;ratioP2
16426;SDS011;8322;-33.900;151.170;2023-11-19T00:02:12;5.65;;;1.10;;
16426;SDS011;8322;-33.900;151.170;2023-11-19T00:04:42;5.32;;;1.65;;
16426;SDS011;8322;-33.900;151.170;2023-11-19T00:07:14;6.88;;;1.08;;
16426;SDS011;8322;-33.900;151.170;2023-11-19T00:09:43;3.90;;;1.23;;
16426;SDS011;8322;-33.900;151.170;2023-11-19T00:12:13;9.77;;;1.80;;
16426;SDS011;8322;-33.900;151.170;2023-11-19T00:14:42;5.43;;;1.10;;
16426;SDS011;8322;-33.900;151.170;2023-11-19T00:17:12;2.85;;;1.27;;
16426;SDS011;8322;-33.900;151.170;2023-11-19T00:19:42;5.10;;;2.00;;
16426;SDS011;8322;-33.900;151.170;2023-11-19T00:22:14;5.95;;;1.27;;
16426;SDS011;8322;-33.900;151.170;2023-11-19T00:24:44;7.75;;;2.20;;
16426;SDS011;8322;-33.900;151.170;2023-11-19T00:27:13;7.57;;;2.85;;
16426;SDS011;8322;-33.900;151.170;2023-11-19T00:29:43;4.55;;;1.23;;
16426;SDS011;8322;-33.900;151.170;2023-11-19T00:32:13;8.20;;;1.60;;
16426;SDS011;8322;-33.900;151.170;2023-11-19T00:34:43;7.03;;;1.50;;
16426;SDS011;8322;-33.900;151.170;2023-11-19T00:37:15;5.07;;;1.88;;
16426;SDS011;8322;-33.900;151.170;2023-11-19T00:39:45;6.40;;;0.98;;
16426;SDS011;8322;-33.900;151.170;2023-11-19T00:42:14;5.05;;;1.40;;
16426;SDS011;8322;-33.900;151.170;2023-11-19T00:44:44;7.13;;;1.42;;
16426;SDS011;8322;-33.900;151.170;2023-11-19T00:47:13;6.65;;;1.63;;
16426;SDS011;8322;-33.900;151.170;2023-11-19T00:49:43;6.25;;;1.95;;
16426;SDS011;8322;-33.900;151.170;2023-11-19T00:52:13;5.80;;;1.33;;
16426;SDS011;8322;-33.900;151.170;2023-11-19T00:54:44;4.57;;;1.10;;
16426;SDS011;8322;-33.900;151.170;2023-11-19T00:57:14;9.63;;;1.50;;
16426;SDS011;8322;-33.900;151.170;2023-11-19T00:59:43;10.63;;;1.25;;
16426;SDS011;8322;-33.900;151.170;2023-11-19T01:02:13;6.65;;;1.45;;
16426;SDS011;8322;-33.900;151.170;2023-11-19T01:04:43;8.90;;;1.20;;
16426;SDS011;8322;-33.900;151.170;2023-11-19T01:07:12;6.15;;;1.40;;
16426;SDS011;8322;-33.900;151.170;2023-11-19T01:09:42;4.60;;;1.20;;
16426;SDS011;8322;-33.900;151.170;2023-11-19T01:12:13;7.80;;;1.60;;
16426;SDS011;8322;-33.900;151.170;2023-11-19T01:14:43;10.07;;;2.13;;
16426;SDS011;8322;-33.900;151.170;2023-11-19T01:17:12;5.18;;;1.23;;
16426;SDS011;8322;-33.900;151.170;2023-11-19T01:19:42;8.05;;;1.90;;
16426;SDS011;8322;-33.900;151.170;2023-11-19T01:22:12;7.43;;;1.52;;
16426;SDS011;8322;-33.900;151.170;2023-11-19T01:24:41;5.50;;;1.42;;
16426;SDS011;8322;-33.900;151.170;2023-11-19T01:27:11;7.22;;;1.38;;
16426;SDS011;8322;-33.900;151.170;2023-11-19T01:29:42;8.88;;;1.50;;
16426;SDS011;8322;-33.900;151.170;2023-11-19T01:32:11;5.45;;;1.20;;
16426;SDS011;8322;-33.900;151.170;2023-11-19T01:34:41;5.20;;;1.17;;
16426;SDS011;8322;-33.900;151.170;2023-11-19T01:37:10;11.15;;;1.30;;
16426;SDS011;8322;-33.900;151.170;2023-11-19T01:39:40;5.00;;;1.10;;
16426;SDS011;8322;-33.900;151.170;2023-11-19T01:42:12;8.48;;;2.40;;
16426;SDS011;8322;-33.900;151.170;2023-11-19T01:44:53;6.88;;;2.15;;
16426;SDS011;8322;-33.900;151.170;2023-11-19T01:47:23;7.63;;;1.50;;
16426;SDS011;8322;-33.900;151.170;2023-11-19T01:49:53;8.60;;;1.58;;
16426;SDS011;8322;-33.900;151.170;2023-11-19T01:52:25;8.73;;;1.80;;
16426;SDS011;8322;-33.900;151.170;2023-11-19T01:54:55;10.52;;;1.77;;
16426;SDS011;8322;-33.900;151.170;2023-11-19T01:57:24;7.15;;;1.35;;
16426;SDS011;8322;-33.900;151.170;2023-11-19T01:59:56;10.90;;;2.40;;
16426;SDS011;8322;-33.900;151.170;2023-11-19T02:02:25;12.30;;;2.45;;
16426;SDS011;8322;-33.900;151.170;2023-11-19T02:04:55;12.45;;;2.53;;
16426;SDS011;8322;-33.900;151.170;2023-11-19T02:07:26;13.32;;;1.92;;
16426;SDS011;8322;-33.900;151.170;2023-11-19T02:09:55;8.93;;;2.35;;
16426;SDS011;8322;-33.900;151.170;2023-11-19T02:12:26;8.63;;;2.05;;
16426;SDS011;8322;-33.900;151.170;2023-11-19T02:14:59;9.18;;;2.17;;
16426;SDS011;8322;-33.900;151.170;2023-11-19T02:17:29;8.13;;;1.67;;
16426;SDS011;8322;-33.900;151.170;2023-11-19T02:20:00;7.07;;;2.03;;
16426;SDS011;8322;-33.900;151.170;2023-11-19T02:22:30;8.93;;;1.90;;
16426;SDS011;8322;-33.900;151.170;2023-11-19T02:25:00;5.90;;;1.73;;
16426;SDS011;8322;-33.900;151.170;2023-11-19T02:27:31;9.13;;;1.80;;
16426;SDS011;8322;-33.900;151.170;2023-11-19T02:30:04;9.27;;;2.08;;
16426;SDS011;8322;-33.900;151.170;2023-11-19T02:32:34;8.88;;;1.88;;
16426;SDS011;8322;-33.900;151.170;2023-11-19T02:35:06;12.05;;;1.60;;
16426;SDS011;8322;-33.900;151.170;2023-11-19T02:37:36;10.63;;;1.60;;
16426;SDS011;8322;-33.900;151.170;2023-11-19T02:40:06;7.97;;;1.40;;
16426;SDS011;8322;-33.900;151.170;2023-11-19T02:42:37;12.30;;;1.80;;
16426;SDS011;8322;-33.900;151.170;2023-11-19T02:45:09;13.10;;;1.85;;
16426;SDS011;8322;-33.900;151.170;2023-11-19T02:47:40;10.20;;;2.17;;
16426;SDS011;8322;-33.900;151.170;2023-11-19T02:50:10;10.52;;;1.73;;
16426;SDS011;8322;-33.900;151.170;2023-11-19T02:52:40;10.75;;;3.35;;
16426;SDS011;8322;-33.900;151.170;2023-11-19T02:55:10;9.63;;;1.70;;
16426;SDS011;8322;-33.900;151.170;2023-11-19T02:57:40;12.02;;;3.00;;
16426;SDS011;8322;-33.900;151.170;2023-11-19T03:00:16;13.30;;;2.20;;
16426;SDS011;8322;-33.900;151.170;2023-11-19T03:02:49;8.73;;;1.63;;
16426;SDS011;8322;-33.900;151.170;2023-11-19T03:05:20;9.63;;;2.10;;
16426;SDS011;8322;-33.900;151.170;2023-11-19T03:07:52;8.68;;;2.08;;
16426;SDS011;8322;-33.900;151.170;2023-11-19T03:10:22;8.00;;;1.67;;
16426;SDS011;8322;-33.900;151.170;2023-11-19T03:12:52;8.80;;;1.95;;
16426;SDS011;8322;-33.900;151.170;2023-11-19T03:15:24;10.93;;;2.17;;
16426;SDS011;8322;-33.900;151.170;2023-11-19T03:17:54;10.52;;;1.95;;
16426;SDS011;8322;-33.900;151.170;2023-11-19T03:20:23;9.60;;;1.80;;
16426;SDS011;8322;-33.900;151.170;2023-11-19T03:22:55;10.40;;;2.40;;
16426;SDS011;8322;-33.900;151.170;2023-11-19T03:25:26;11.07;;;2.42;;
16426;SDS011;8322;-33.900;151.170;2023-11-19T03:27:59;8.35;;;2.08;;
16426;SDS011;8322;-33.900;151.170;2023-11-19T03:30:31;7.80;;;1.33;;
16426;SDS011;8322;-33.900;151.170;2023-11-19T03:33:00;7.63;;;1.70;;
16426;SDS011;8322;-33.900;151.170;2023-11-19T03:35:30;8.93;;;1.85;;
16426;SDS011;8322;-33.900;151.170;2023-11-19T03:38:00;9.43;;;1.92;;
16426;SDS011;8322;-33.900;151.170;2023-11-19T03:40:30;8.35;;;2.28;;
16426;SDS011;8322;-33.900;151.170;2023-11-19T03:42:59;11.07;;;2.63;;
16426;SDS011;8322;-33.900;151.170;2023-11-19T03:45:32;13.45;;;2.47;;
16426;SDS011;8322;-33.900;151.170;2023-11-19T03:48:02;10.88;;;1.80;;
16426;SDS011;8322;-33.900;151.170;2023-11-19T03:50:31;14.60;;;2.30;;
16426;SDS011;8322;-33.900;151.170;2023-11-19T03:53:01;12.77;;;2.15;;
16426;SDS011;8322;-33.900;151.170;2023-11-19T03:55:31;10.27;;;1.85;;
16426;SDS011;8322;-33.900;151.170;2023-11-19T03:58:00;10.82;;;1.95;;
16426;SDS011;8322;-33.900;151.170;2023-11-19T04:00:32;9.48;;;1.90;;
16426;SDS011;8322;-33.900;151.170;2023-11-19T04:03:01;10.10;;;1.95;;
16426;SDS011;8322;-33.900;151.170;2023-11-19T04:05:31;6.75;;;1.45;;
16426;SDS011;8322;-33.900;151.170;2023-11-19T04:08:01;12.02;;;2.00;;
16426;SDS011;8322;-33.900;151.170;2023-11-19T04:10:30;11.90;;;2.10;;
16426;SDS011;8322;-33.900;151.170;2023-11-19T04:13:00;11.43;;;2.08;;
16426;SDS011;8322;-33.900;151.170;2023-11-19T04:15:29;13.23;;;2.58;;
16426;SDS011;8322;-33.900;151.170;2023-11-19T04:18:00;9.40;;;1.50;;
16426;SDS011;8322;-33.900;151.170;2023-11-19T04:20:30;8.32;;;1.40;;
16426;SDS011;8322;-33.900;151.170;2023-11-19T04:22:59;8.18;;;1.92;;
16426;SDS011;8322;-33.900;151.170;2023-11-19T04:25:29;11.88;;;2.88;;
16426;SDS011;8322;-33.900;151.170;2023-11-19T04:27:58;7.40;;;2.17;;
16426;SDS011;8322;-33.900;151.170;2023-11-19T04:30:28;8.93;;;1.92;;
16426;SDS011;8322;-33.900;151.170;2023-11-19T04:32:58;11.98;;;1.90;;
16426;SDS011;8322;-33.900;151.170;2023-11-19T04:35:29;9.30;;;1.88;;
16426;SDS011;8322;-33.900;151.170;2023-11-19T04:37:59;9.77;;;1.88;;
16426;SDS011;8322;-33.900;151.170;2023-11-19T04:40:28;10.88;;;2.47;;
16426;SDS011;8322;-33.900;151.170;2023-11-19T04:42:59;14.90;;;3.83;;
16426;SDS011;8322;-33.900;151.170;2023-11-19T04:45:29;10.52;;;2.30;;
16426;SDS011;8322;-33.900;151.170;2023-11-19T04:47:59;13.27;;;3.00;;
16426;SDS011;8322;-33.900;151.170;2023-11-19T04:50:30;11.02;;;2.20;;
16426;SDS011;8322;-33.900;151.170;2023-11-19T04:53:00;9.38;;;2.38;;
16426;SDS011;8322;-33.900;151.170;2023-11-19T04:55:29;12.63;;;2.63;;
16426;SDS011;8322;-33.900;151.170;2023-11-19T04:57:59;7.75;;;1.83;;
16426;SDS011;8322;-33.900;151.170;2023-11-19T05:00:28;9.38;;;1.70;;
16426;SDS011;8322;-33.900;151.170;2023-11-19T05:02:58;16.38;;;2.50;;
16426;SDS011;8322;-33.900;151.170;2023-11-19T05:05:28;10.55;;;1.80;;
16426;SDS011;8322;-33.900;151.170;2023-11-19T05:07:59;8.63;;;1.92;;
16426;SDS011;8322;-33.900;151.170;2023-11-19T05:10:29;13.25;;;1.80;;
16426;SDS011;8322;-33.900;151.170;2023-11-19T05:12:59;10.63;;;1.95;;
16426;SDS011;8322;-33.900;151.170;2023-11-19T05:15:28;9.63;;;1.77;;
16426;SDS011;8322;-33.900;151.170;2023-11-19T05:17:59;8.35;;;2.08;;
16426;SDS011;8322;-33.900;151.170;2023-11-19T05:20:28;7.82;;;1.77;;
16426;SDS011;8322;-33.900;151.170;2023-11-19T05:23:00;14.55;;;2.05;;
16426;SDS011;8322;-33.900;151.170;2023-11-19T05:25:29;13.48;;;2.20;;
16426;SDS011;8322;-33.900;151.170;2023-11-19T05:27:59;14.07;;;2.03;;
16426;SDS011;8322;-33.900;151.170;2023-11-19T05:30:28;11.98;;;2.05;;
16426;SDS011;8322;-33.900;151.170;2023-11-19T05:32:58;8.85;;;2.22;;
16426;SDS011;8322;-33.900;151.170;2023-11-19T05:35:28;7.10;;;1.88;;
16426;SDS011;8322;-33.900;151.170;2023-11-19T05:37:59;9.18;;;1.98;;
16426;SDS011;8322;-33.900;151.170;2023-11-19T05:40:29;17.98;;;2.50;;
16426;SDS011;8322;-33.900;151.170;2023-11-19T05:42:59;11.15;;;2.42;;
16426;SDS011;8322;-33.900;151.170;2023-11-19T05:45:28;11.45;;;2.67;;
16426;SDS011;8322;-33.900;151.170;2023-11-19T05:47:58;15.85;;;2.85;;
16426;SDS011;8322;-33.900;151.170;2023-11-19T05:50:30;12.50;;;3.05;;
16426;SDS011;8322;-33.900;151.170;2023-11-19T05:53:01;18.08;;;2.65;;
16426;SDS011;8322;-33.900;151.170;2023-11-19T05:55:33;10.85;;;2.35;;
16426;SDS011;8322;-33.900;151.170;2023-11-19T05:58:03;13.15;;;2.05;;
16426;SDS011;8322;-33.900;151.170;2023-11-19T06:00:37;11.73;;;2.45;;
16426;SDS011;8322;-33.900;151.170;2023-11-19T06:03:07;12.38;;;2.20;;
16426;SDS011;8322;-33.900;151.170;2023-11-19T06:05:36;11.70;;;1.90;;
16426;SDS011;8322;-33.900;151.170;2023-11-19T06:08:08;15.15;;;1.95;;
16426;SDS011;8322;-33.900;151.170;2023-11-19T06:10:39;10.85;;;2.50;;
16426;SDS011;8322;-33.900;151.170;2023-11-19T06:13:08;12.45;;;2.55;;
16426;SDS011;8322;-33.900;151.170;2023-11-19T06:15:38;11.15;;;2.20;;
16426;SDS011;8322;-33.900;151.170;2023-11-19T06:18:07;12.30;;;1.92;;
16426;SDS011;8322;-33.900;151.170;2023-11-19T06:20:38;10.82;;;2.00;;
16426;SDS011;8322;-33.900;151.170;2023-11-19T06:23:09;12.82;;;1.92;;
16426;SDS011;8322;-33.900;151.170;2023-11-19T06:25:39;10.30;;;2.30;;
16426;SDS011;8322;-33.900;151.170;2023-11-19T06:28:08;12.75;;;2.13;;
16426;SDS011;8322;-33.900;151.170;2023-11-19T06:30:38;11.32;;;2.78;;
16426;SDS011;8322;-33.900;151.170;2023-11-19T06:33:07;14.10;;;2.72;;
16426;SDS011;8322;-33.900;151.170;2023-11-19T06:35:37;15.80;;;4.60;;
16426;SDS011;8322;-33.900;151.170;2023-11-19T06:38:06;15.02;;;3.20;;
16426;SDS011;8322;-33.900;151.170;2023-11-19T06:40:38;13.20;;;2.67;;
16426;SDS011;8322;-33.900;151.170;2023-11-19T06:43:08;9.25;;;2.38;;
16426;SDS011;8322;-33.900;151.170;2023-11-19T06:45:37;14.50;;;3.28;;
16426;SDS011;8322;-33.900;151.170;2023-11-19T06:48:07;12.80;;;2.85;;
16426;SDS011;8322;-33.900;151.170;2023-11-19T06:50:37;15.65;;;4.60;;
16426;SDS011;8322;-33.900;151.170;2023-11-19T06:53:06;21.42;;;6.65;;
16426;SDS011;8322;-33.900;151.170;2023-11-19T06:55:38;18.85;;;4.68;;
16426;SDS011;8322;-33.900;151.170;2023-11-19T06:58:07;18.33;;;3.60;;
16426;SDS011;8322;-33.900;151.170;2023-11-19T07:00:38;15.93;;;4.05;;
16426;SDS011;8322;-33.900;151.170;2023-11-19T07:03:07;12.60;;;3.80;;
16426;SDS011;8322;-33.900;151.170;2023-11-19T07:05:37;20.45;;;5.10;;
16426;SDS011;8322;-33.900;151.170;2023-11-19T07:08:06;11.20;;;3.60;;
16426;SDS011;8322;-33.900;151.170;2023-11-19T07:10:38;18.95;;;4.50;;
16426;SDS011;8322;-33.900;151.170;2023-11-19T07:13:07;20.88;;;6.10;;
16426;SDS011;8322;-33.900;151.170;2023-11-19T07:15:37;16.20;;;2.80;;
16426;SDS011;8322;-33.900;151.170;2023-11-19T07:18:06;16.50;;;5.38;;
16426;SDS011;8322;-33.900;151.170;2023-11-19T07:20:37;16.10;;;5.65;;
16426;SDS011;8322;-33.900;151.170;2023-11-19T07:23:07;20.00;;;6.82;;
16426;SDS011;8322;-33.900;151.170;2023-11-19T07:25:38;23.45;;;8.13;;
16426;SDS011;8322;-33.900;151.170;2023-11-19T07:28:07;15.45;;;5.30;;
16426;SDS011;8322;-33.900;151.170;2023-11-19T07:30:38;18.73;;;4.60;;
16426;SDS011;8322;-33.900;151.170;2023-11-19T07:33:07;18.50;;;4.40;;
16426;SDS011;8322;-33.900;151.170;2023-11-19T07:35:37;16.77;;;3.75;;
16426;SDS011;8322;-33.900;151.170;2023-11-19T07:38:07;22.27;;;7.35;;
16426;SDS011;8322;-33.900;151.170;2023-11-19T07:40:38;13.80;;;3.83;;
16426;SDS011;8322;-33.900;151.170;2023-11-19T07:43:08;23.73;;;7.05;;
16426;SDS011;8322;-33.900;151.170;2023-11-19T07:45:38;17.20;;;4.07;;
16426;SDS011;8322;-33.900;151.170;2023-11-19T07:48:11;14.32;;;3.22;;
16426;SDS011;8322;-33.900;151.170;2023-11-19T07:50:41;16.38;;;3.30;;
16426;SDS011;8322;-33.900;151.170;2023-11-19T07:53:11;17.92;;;3.20;;
16426;SDS011;8322;-33.900;151.170;2023-11-19T07:55:42;21.08;;;4.60;;
16426;SDS011;8322;-33.900;151.170;2023-11-19T07:58:12;16.98;;;3.08;;
16426;SDS011;8322;-33.900;151.170;2023-11-19T08:00:41;18.70;;;4.28;;
16426;SDS011;8322;-33.900;151.170;2023-11-19T08:03:11;19.02;;;4.20;;
16426;SDS011;8322;-33.900;151.170;2023-11-19T08:05:40;20.25;;;3.40;;
16426;SDS011;8322;-33.900;151.170;2023-11-19T08:08:10;17.75;;;3.15;;
16426;SDS011;8322;-33.900;151.170;2023-11-19T08:10:40;20.17;;;4.65;;
16426;SDS011;8322;-33.900;151.170;2023-11-19T08:13:12;20.20;;;6.43;;
16426;SDS011;8322;-33.900;151.170;2023-11-19T08:15:42;16.38;;;5.82;;
16426;SDS011;8322;-33.900;151.170;2023-11-19T08:18:12;30.83;;;11.98;;
16426;SDS011;8322;-33.900;151.170;2023-11-19T08:20:41;27.77;;;7.15;;
16426;SDS011;8322;-33.900;151.170;2023-11-19T08:23:11;27.45;;;6.90;;
16426;SDS011;8322;-33.900;151.170;2023-11-19T08:25:41;16.77;;;3.20;;
16426;SDS011;8322;-33.900;151.170;2023-11-19T08:28:12;17.35;;;4.28;;
16426;SDS011;8322;-33.900;151.170;2023-11-19T08:30:42;25.83;;;5.75;;
16426;SDS011;8322;-33.900;151.170;2023-11-19T08:33:12;26.90;;;9.55;;
16426;SDS011;8322;-33.900;151.170;2023-11-19T08:35:41;28.30;;;8.05;;
16426;SDS011;8322;-33.900;151.170;2023-11-19T08:38:11;32.90;;;8.98;;
16426;SDS011;8322;-33.900;151.170;2023-11-19T08:40:40;19.98;;;6.03;;
16426;SDS011;8322;-33.900;151.170;2023-11-19T08:43:10;17.48;;;4.75;;
16426;SDS011;8322;-33.900;151.170;2023-11-19T08:45:41;16.33;;;3.17;;
16426;SDS011;8322;-33.900;151.170;2023-11-19T08:48:10;18.88;;;3.28;;
16426;SDS011;8322;-33.900;151.170;2023-11-19T08:50:40;19.65;;;4.75;;
16426;SDS011;8322;-33.900;151.170;2023-11-19T08:53:09;12.95;;;3.00;;
16426;SDS011;8322;-33.900;151.170;2023-11-19T08:55:39;14.85;;;3.20;;
16426;SDS011;8322;-33.900;151.170;2023-11-19T08:58:09;13.40;;;3.50;;
16426;SDS011;8322;-33.900;151.170;2023-11-19T09:00:38;15.13;;;3.70;;
16426;SDS011;8322;-33.900;151.170;2023-11-19T09:03:09;13.80;;;3.00;;
16426;SDS011;8322;-33.900;151.170;2023-11-19T09:05:39;19.35;;;4.55;;
16426;SDS011;8322;-33.900;151.170;2023-11-19T09:08:09;19.17;;;3.28;;
16426;SDS011;8322;-33.900;151.170;2023-11-19T09:10:39;13.85;;;3.72;;
16426;SDS011;8322;-33.900;151.170;2023-11-19T09:13:09;19.02;;;4.10;;
16426;SDS011;8322;-33.900;151.170;2023-11-19T09:15:38;28.08;;;6.82;;
16426;SDS011;8322;-33.900;151.170;2023-11-19T09:18:10;20.95;;;4.72;;
16426;SDS011;8322;-33.900;151.170;2023-11-19T09:20:39;17.60;;;3.72;;
16426;SDS011;8322;-33.900;151.170;2023-11-19T09:23:10;17.05;;;3.22;;
16426;SDS011;8322;-33.900;151.170;2023-11-19T09:25:39;15.98;;;2.83;;
16426;SDS011;8322;-33.900;151.170;2023-11-19T09:28:11;20.20;;;3.30;;
16426;SDS011;8322;-33.900;151.170;2023-11-19T09:31:12;19.83;;;3.40;;
16426;SDS011;8322;-33.900;151.170;2023-11-19T09:33:44;23.27;;;4.63;;
16426;SDS011;8322;-33.900;151.170;2023-11-19T09:36:14;22.27;;;4.10;;
16426;SDS011;8322;-33.900;151.170;2023-11-19T09:38:45;21.17;;;5.47;;
16426;SDS011;8322;-33.900;151.170;2023-11-19T09:41:15;13.57;;;2.95;;
16426;SDS011;8322;-33.900;151.170;2023-11-19T09:43:45;18.10;;;3.30;;
16426;SDS011;8322;-33.900;151.170;2023-11-19T09:46:15;15.73;;;2.72;;
16426;SDS011;8322;-33.900;151.170;2023-11-19T09:48:47;16.80;;;2.70;;
16426;SDS011;8322;-33.900;151.170;2023-11-19T09:51:19;18.92;;;3.13;;
16426;SDS011;8322;-33.900;151.170;2023-11-19T09:53:48;18.95;;;3.80;;
16426;SDS011;8322;-33.900;151.170;2023-11-19T09:56:18;18.15;;;5.18;;
16426;SDS011;8322;-33.900;151.170;2023-11-19T09:58:48;20.25;;;3.85;;
16426;SDS011;8322;-33.900;151.170;2023-11-19T10:01:18;20.25;;;3.53;;
16426;SDS011;8322;-33.900;151.170;2023-11-19T10:03:49;17.08;;;3.10;;
16426;SDS011;8322;-33.900;151.170;2023-11-19T10:06:20;16.73;;;3.40;;
16426;SDS011;8322;-33.900;151.170;2023-11-19T10:08:50;16.17;;;3.42;;
16426;SDS011;8322;-33.900;151.170;2023-11-19T10:11:21;22.85;;;3.75;;
16426;SDS011;8322;-33.900;151.170;2023-11-19T10:13:52;16.23;;;3.35;;
16426;SDS011;8322;-33.900;151.170;2023-11-19T10:16:27;19.60;;;3.67;;
16426;SDS011;8322;-33.900;151.170;2023-11-19T10:19:00;17.33;;;3.88;;
16426;SDS011;8322;-33.900;151.170;2023-11-19T10:21:32;21.38;;;5.72;;
16426;SDS011;8322;-33.900;151.170;2023-11-19T10:24:02;28.23;;;9.57;;
16426;SDS011;8322;-33.900;151.170;2023-11-19T10:26:32;21.52;;;7.07;;
16426;SDS011;8322;-33.900;151.170;2023-11-19T10:29:01;24.35;;;5.32;;
16426;SDS011;8322;-33.900;151.170;2023-11-19T10:31:31;13.50;;;3.40;;
16426;SDS011;8322;-33.900;151.170;2023-11-19T10:34:04;15.65;;;3.25;;
16426;SDS011;8322;-33.900;151.170;2023-11-19T10:36:53;20.25;;;4.50;;
16426;SDS011;8322;-33.900;151.170;2023-11-19T10:39:23;15.75;;;3.10;;
16426;SDS011;8322;-33.900;151.170;2023-11-19T10:41:54;19.38;;;3.47;;
16426;SDS011;8322;-33.900;151.170;2023-11-19T10:44:33;21.05;;;2.80;;
16426;SDS011;8322;-33.900;151.170;2023-11-19T10:47:06;17.77;;;2.90;;
16426;SDS011;8322;-33.900;151.170;2023-11-19T10:49:39;18.83;;;3.40;;
16426;SDS011;8322;-33.900;151.170;2023-11-19T10:52:09;16.25;;;3.58;;
16426;SDS011;8322;-33.900;151.170;2023-11-19T10:54:39;19.95;;;3.33;;
16426;SDS011;8322;-33.900;151.170;2023-11-19T10:57:12;18.05;;;3.20;;
16426;SDS011;8322;-33.900;151.170;2023-11-19T10:59:47;29.65;;;8.85;;
16426;SDS011;8322;-33.900;151.170;2023-11-19T11:02:18;20.35;;;6.70;;
16426;SDS011;8322;-33.900;151.170;2023-11-19T11:04:50;17.52;;;3.67;;
16426;SDS011;8322;-33.900;151.170;2023-11-19T11:07:21;15.52;;;2.83;;
16426;SDS011;8322;-33.900;151.170;2023-11-19T11:09:52;15.57;;;2.75;;
16426;SDS011;8322;-33.900;151.170;2023-11-19T11:12:22;16.45;;;3.28;;
16426;SDS011;8322;-33.900;151.170;2023-11-19T11:14:53;21.92;;;4.80;;
16426;SDS011;8322;-33.900;151.170;2023-11-19T11:17:24;19.90;;;3.60;;
16426;SDS011;8322;-33.900;151.170;2023-11-19T11:19:57;16.70;;;2.72;;
16426;SDS011;8322;-33.900;151.170;2023-11-19T11:22:27;22.63;;;3.50;;
16426;SDS011;8322;-33.900;151.170;2023-11-19T11:25:01;18.10;;;4.25;;
16426;SDS011;8322;-33.900;151.170;2023-11-19T11:27:42;26.92;;;7.82;;
16426;SDS011;8322;-33.900;151.170;2023-11-19T11:30:17;21.25;;;6.07;;
16426;SDS011;8322;-33.900;151.170;2023-11-19T11:32:50;19.30;;;3.75;;
16426;SDS011;8322;-33.900;151.170;2023-11-19T11:35:30;21.40;;;6.35;;
16426;SDS011;8322;-33.900;151.170;2023-11-19T11:38:01;17.17;;;3.17;;
16426;SDS011;8322;-33.900;151.170;2023-11-19T11:40:32;19.15;;;3.58;;
16426;SDS011;8322;-33.900;151.170;2023-11-19T11:43:02;18.02;;;3.13;;
16426;SDS011;8322;-33.900;151.170;2023-11-19T11:45:37;16.15;;;3.00;;
16426;SDS011;8322;-33.900;151.170;2023-11-19T11:48:10;17.52;;;3.60;;
16426;SDS011;8322;-33.900;151.170;2023-11-19T11:50:51;17.30;;;3.03;;
16426;SDS011;8322;-33.900;151.170;2023-11-19T11:53:22;19.08;;;3.10;;
16426;SDS011;8322;-33.900;151.170;2023-11-19T11:55:55;23.00;;;3.25;;
16426;SDS011;8322;-33.900;151.170;2023-11-19T12:01:14;15.32;;;2.88;;
16426;SDS011;8322;-33.900;151.170;2023-11-19T12:03:46;19.42;;;2.85;;
16426;SDS011;8322;-33.900;151.170;2023-11-19T12:06:18;15.02;;;2.90;;
16426;SDS011;8322;-33.900;151.170;2023-11-19T12:08:49;19.90;;;3.15;;
16426;SDS011;8322;-33.900;151.170;2023-11-19T12:11:19;19.33;;;3.20;;
16426;SDS011;8322;-33.900;151.170;2023-11-19T12:13:57;17.33;;;3.00;;
16426;SDS011;8322;-33.900;151.170;2023-11-19T12:16:28;13.70;;;2.70;;
16426;SDS011;8322;-33.900;151.170;2023-11-19T12:19:03;18.65;;;2.97;;
16426;SDS011;8322;-33.900;151.170;2023-11-19T12:21:35;22.35;;;3.22;;
16426;SDS011;8322;-33.900;151.170;2023-11-19T12:24:04;17.60;;;2.63;;
16426;SDS011;8322;-33.900;151.170;2023-11-19T12:26:36;18.15;;;2.88;;
16426;SDS011;8322;-33.900;151.170;2023-11-19T12:29:06;21.90;;;3.30;;
16426;SDS011;8322;-33.900;151.170;2023-11-19T12:31:38;18.52;;;2.95;;
16426;SDS011;8322;-33.900;151.170;2023-11-19T12:34:10;18.58;;;3.28;;
16426;SDS011;8322;-33.900;151.170;2023-11-19T12:36:42;19.33;;;3.38;;
16426;SDS011;8322;-33.900;151.170;2023-11-19T12:39:11;22.95;;;3.65;;
16426;SDS011;8322;-33.900;151.170;2023-11-19T12:41:50;19.15;;;3.25;;
16426;SDS011;8322;-33.900;151.170;2023-11-19T12:44:20;16.23;;;3.13;;
16426;SDS011;8322;-33.900;151.170;2023-11-19T12:46:59;18.33;;;3.20;;
16426;SDS011;8322;-33.900;151.170;2023-11-19T12:49:29;19.98;;;3.38;;
16426;SDS011;8322;-33.900;151.170;2023-11-19T12:52:01;14.75;;;2.70;;
16426;SDS011;8322;-33.900;151.170;2023-11-19T12:54:36;16.05;;;3.03;;
16426;SDS011;8322;-33.900;151.170;2023-11-19T12:57:06;17.13;;;2.70;;
16426;SDS011;8322;-33.900;151.170;2023-11-19T12:59:35;18.08;;;3.10;;
16426;SDS011;8322;-33.900;151.170;2023-11-19T13:02:05;15.02;;;2.70;;
16426;SDS011;8322;-33.900;151.170;2023-11-19T13:04:35;16.27;;;3.55;;
16426;SDS011;8322;-33.900;151.170;2023-11-19T13:07:07;17.60;;;2.85;;
16426;SDS011;8322;-33.900;151.170;2023-11-19T13:09:36;16.65;;;3.17;;
16426;SDS011;8322;-33.900;151.170;2023-11-19T13:12:13;16.13;;;3.10;;
16426;SDS011;8322;-33.900;151.170;2023-11-19T13:14:42;19.75;;;3.08;;
16426;SDS011;8322;-33.900;151.170;2023-11-19T13:17:13;22.70;;;3.10;;
16426;SDS011;8322;-33.900;151.170;2023-11-19T13:19:43;16.20;;;3.10;;
16426;SDS011;8322;-33.900;151.170;2023-11-19T13:22:14;16.90;;;3.15;;
16426;SDS011;8322;-33.900;151.170;2023-11-19T13:24:44;18.42;;;3.22;;
16426;SDS011;8322;-33.900;151.170;2023-11-19T13:27:13;14.40;;;2.72;;
16426;SDS011;8322;-33.900;151.170;2023-11-19T13:29:43;16.98;;;3.00;;
16426;SDS011;8322;-33.900;151.170;2023-11-19T13:32:12;19.77;;;3.00;;
16426;SDS011;8322;-33.900;151.170;2023-11-19T13:34:42;23.00;;;3.47;;
16426;SDS011;8322;-33.900;151.170;2023-11-19T13:37:12;22.17;;;2.92;;
16426;SDS011;8322;-33.900;151.170;2023-11-19T13:39:43;19.38;;;3.50;;
16426;SDS011;8322;-33.900;151.170;2023-11-19T13:42:13;19.80;;;3.10;;
16426;SDS011;8322;-33.900;151.170;2023-11-19T13:44:42;20.23;;;3.13;;
16426;SDS011;8322;-33.900;151.170;2023-11-19T13:47:12;23.20;;;3.33;;
16426;SDS011;8322;-33.900;151.170;2023-11-19T13:49:41;19.90;;;3.00;;
16426;SDS011;8322;-33.900;151.170;2023-11-19T13:52:11;18.50;;;3.13;;
16426;SDS011;8322;-33.900;151.170;2023-11-19T13:54:40;14.98;;;3.03;;
16426;SDS011;8322;-33.900;151.170;2023-11-19T13:57:12;15.55;;;3.15;;
16426;SDS011;8322;-33.900;151.170;2023-11-19T13:59:41;14.07;;;3.10;;
16426;SDS011;8322;-33.900;151.170;2023-11-19T14:02:11;16.30;;;2.92;;
16426;SDS011;8322;-33.900;151.170;2023-11-19T14:04:41;17.67;;;2.72;;
16426;SDS011;8322;-33.900;151.170;2023-11-19T14:07:10;17.02;;;3.00;;
16426;SDS011;8322;-33.900;151.170;2023-11-19T14:09:42;18.23;;;3.53;;
16426;SDS011;8322;-33.900;151.170;2023-11-19T14:12:13;19.05;;;3.30;;
16426;SDS011;8322;-33.900;151.170;2023-11-19T14:14:43;15.63;;;2.58;;
16426;SDS011;8322;-33.900;151.170;2023-11-19T14:17:13;14.57;;;2.55;;
16426;SDS011;8322;-33.900;151.170;2023-11-19T14:19:42;12.27;;;2.60;;
16426;SDS011;8322;-33.900;151.170;2023-11-19T14:22:12;14.57;;;2.53;;
16426;SDS011;8322;-33.900;151.170;2023-11-19T14:24:41;13.70;;;2.83;;
16426;SDS011;8322;-33.900;151.170;2023-11-19T14:27:11;15.10;;;3.13;;
16426;SDS011;8322;-33.900;151.170;2023-11-19T14:29:42;12.32;;;2.72;;
16426;SDS011;8322;-33.900;151.170;2023-11-19T14:32:12;16.60;;;2.78;;
16426;SDS011;8322;-33.900;151.170;2023-11-19T14:34:42;11.60;;;2.60;;